Time;durP1;ratioP1;P1;durP2;ratioP2;P2;SDS_P1;SDS_P2;PMS_P1;PMS_P2;Temp;Humidity;BMP_temperature;BMP_pressure;BME280_temperature;BME280_humidity;BME280_pressure;Samples;Min_cycle;Max_cycle;Signal;HPM_P1;HPM_P2
2024/04/04 00:01:39;;;;;;;1.83;1.00;;;16.10;61.40;;;;;;5032788;28;20258;-64
2024/04/04 00:04:04;;;;;;;2.00;1.13;;;16.10;61.50;;;;;;5032084;28;20266;-64
2024/04/04 00:06:30;;;;;;;1.48;0.80;;;16.10;61.40;;;;;;5032473;28;20180;-64
2024/04/04 00:08:55;;;;;;;4.30;1.00;;;16.10;61.40;;;;;;5032159;28;20259;-64
2024/04/04 00:11:21;;;;;;;1.25;0.80;;;16.10;61.40;;;;;;5032319;28;20176;-64
2024/04/04 00:13:47;;;;;;;1.08;0.88;;;16.10;61.40;;;;;;5032759;28;20172;-64
2024/04/04 00:16:12;;;;;;;1.10;0.90;;;16.10;61.30;;;;;;5031483;28;20182;-64
2024/04/04 00:18:38;;;;;;;3.15;0.93;;;16.10;61.20;;;;;;5032491;28;20180;-65
2024/04/04 00:21:04;;;;;;;2.63;1.20;;;16.10;61.40;;;;;;5032587;28;20269;-64
2024/04/04 00:23:30;;;;;;;1.65;1.00;;;16.10;61.20;;;;;;5031616;28;20600;-65
2024/04/04 00:25:55;;;;;;;2.75;1.05;;;16.00;61.20;;;;;;5031658;28;20183;-64
2024/04/04 00:28:21;;;;;;;3.35;1.42;;;16.00;61.20;;;;;;5032146;28;20258;-64
2024/04/04 00:30:46;;;;;;;3.05;1.20;;;16.00;61.20;;;;;;5031534;28;20192;-64
2024/04/04 00:33:12;;;;;;;1.33;0.90;;;16.00;62.10;;;;;;5031798;28;20179;-64
2024/04/04 00:35:38;;;;;;;2.95;1.23;;;16.00;61.10;;;;;;5032471;28;20650;-64
2024/04/04 00:38:03;;;;;;;2.65;1.00;;;16.00;61.00;;;;;;5030309;28;20234;-64
2024/04/04 00:40:36;;;;;;;1.45;1.02;;;16.00;61.10;;;;;;5032014;28;20211;-65
2024/04/04 00:43:01;;;;;;;1.60;0.85;;;16.00;61.20;;;;;;5032199;28;20215;-64
2024/04/04 00:45:27;;;;;;;2.88;1.05;;;16.00;61.10;;;;;;5030382;28;20241;-64
2024/04/04 00:47:52;;;;;;;1.15;0.73;;;16.00;61.00;;;;;;5032269;28;20164;-63
2024/04/04 00:50:18;;;;;;;2.55;0.85;;;16.00;61.10;;;;;;5030792;28;20180;-63
2024/04/04 00:52:44;;;;;;;2.05;0.90;;;16.00;61.00;;;;;;5031662;28;20195;-64
2024/04/04 00:55:09;;;;;;;3.38;1.08;;;16.00;61.10;;;;;;5031817;28;20544;-64
2024/04/04 00:57:35;;;;;;;1.95;1.00;;;16.00;60.90;;;;;;5030811;28;20176;-65
2024/04/04 01:00:01;;;;;;;3.80;1.17;;;16.00;60.90;;;;;;5029996;28;20222;-64
2024/04/04 01:02:26;;;;;;;3.78;1.10;;;15.90;60.90;;;;;;5031652;28;20179;-63
2024/04/04 01:04:52;;;;;;;1.92;1.00;;;15.90;60.90;;;;;;5032024;28;20622;-63
2024/04/04 01:07:17;;;;;;;1.85;0.77;;;15.90;60.90;;;;;;5030941;28;20705;-63
2024/04/04 01:09:43;;;;;;;2.35;1.10;;;15.90;60.90;;;;;;5031831;28;20591;-63
2024/04/04 01:12:09;;;;;;;1.45;0.88;;;15.90;60.90;;;;;;5030858;28;20239;-63
2024/04/04 01:14:34;;;;;;;2.40;1.23;;;15.90;60.90;;;;;;5031689;28;20183;-63
2024/04/04 01:17:00;;;;;;;3.85;1.17;;;15.90;60.90;;;;;;5031510;28;20627;-63
2024/04/04 01:19:26;;;;;;;1.92;1.00;;;15.90;60.90;;;;;;5030761;28;20228;-63
2024/04/04 01:21:51;;;;;;;3.20;1.30;;;15.90;60.90;;;;;;5031697;28;20184;-63
2024/04/04 01:24:17;;;;;;;1.60;1.10;;;15.90;60.90;;;;;;5031266;28;20172;-63
2024/04/04 01:26:42;;;;;;;2.08;1.15;;;15.90;60.90;;;;;;5031048;28;20175;-63
2024/04/04 01:29:08;;;;;;;1.95;1.02;;;15.90;61.10;;;;;;5031199;28;20168;-62
2024/04/04 01:31:33;;;;;;;2.10;0.90;;;15.90;61.00;;;;;;5031857;28;20168;-63
2024/04/04 01:33:59;;;;;;;2.20;1.00;;;15.90;60.90;;;;;;5031000;28;20259;-63
2024/04/04 01:36:24;;;;;;;3.95;1.17;;;15.90;61.00;;;;;;5031268;28;20594;-63
2024/04/04 01:38:50;;;;;;;0.77;0.70;;;15.90;61.00;;;;;;5031553;28;20584;-63
2024/04/04 01:41:16;;;;;;;1.65;0.90;;;15.90;61.00;;;;;;5030343;28;20700;-62
2024/04/04 01:43:42;;;;;;;2.40;0.98;;;15.90;60.90;;;;;;5031454;28;20176;-63
2024/04/04 01:46:07;;;;;;;1.90;0.88;;;15.80;60.90;;;;;;5031586;28;20673;-62
2024/04/04 01:48:33;;;;;;;1.50;0.90;;;15.90;61.00;;;;;;5030842;28;20176;-63
2024/04/04 01:50:58;;;;;;;2.40;1.08;;;15.90;61.10;;;;;;5031525;28;20202;-62
2024/04/04 01:53:24;;;;;;;2.17;0.88;;;15.80;61.00;;;;;;5031162;28;20187;-63
2024/04/04 01:55:49;;;;;;;1.60;1.10;;;15.80;61.20;;;;;;5031762;28;20187;-63
2024/04/04 01:58:15;;;;;;;3.42;1.10;;;15.80;61.10;;;;;;5034662;28;20179;-63
2024/04/04 02:00:40;;;;;;;4.13;1.10;;;15.90;61.10;;;;;;5034872;28;20207;-63
2024/04/04 02:03:06;;;;;;;1.55;0.93;;;15.80;61.10;;;;;;5034272;28;20182;-63
2024/04/04 02:05:31;;;;;;;1.17;0.80;;;15.80;61.10;;;;;;5035006;28;20179;-62
2024/04/04 02:07:57;;;;;;;2.22;0.90;;;15.80;61.20;;;;;;5035038;28;20168;-63
2024/04/04 02:10:23;;;;;;;1.25;0.85;;;15.80;61.10;;;;;;5034048;28;20182;-63
2024/04/04 02:12:48;;;;;;;3.70;1.55;;;15.80;61.20;;;;;;5034878;28;20172;-63
2024/04/04 02:15:14;;;;;;;3.88;1.30;;;15.80;61.20;;;;;;5034327;28;20183;-63
2024/04/04 02:17:40;;;;;;;1.30;0.70;;;15.80;61.20;;;;;;5034465;28;20259;-63
2024/04/04 02:20:09;;;;;;;2.92;1.20;;;15.80;61.10;;;;;;5034886;28;20302;-63
2024/04/04 02:22:36;;;;;;;2.10;0.98;;;15.80;61.20;;;;;;5034366;28;20592;-63
2024/04/04 02:25:02;;;;;;;3.08;1.33;;;15.80;61.20;;;;;;5034930;28;20187;-63
2024/04/04 02:27:28;;;;;;;2.30;0.88;;;15.80;61.50;;;;;;5034475;28;20705;-63
2024/04/04 02:29:53;;;;;;;3.25;1.50;;;15.80;61.30;;;;;;5034308;28;20226;-62
2024/04/04 02:32:19;;;;;;;2.70;1.10;;;15.80;61.30;;;;;;5034601;28;20176;-63
2024/04/04 02:34:44;;;;;;;1.52;1.02;;;15.80;61.30;;;;;;5034836;28;20642;-63
2024/04/04 02:37:10;;;;;;;3.58;1.23;;;15.80;61.30;;;;;;5033585;28;20204;-63
2024/04/04 02:39:35;;;;;;;1.90;0.88;;;15.80;61.30;;;;;;5034392;28;20246;-63
2024/04/04 02:42:01;;;;;;;1.50;0.82;;;15.80;61.30;;;;;;5034186;28;20227;-63
2024/04/04 02:44:27;;;;;;;2.05;1.40;;;15.80;61.40;;;;;;5033221;28;20606;-63
2024/04/04 02:46:53;;;;;;;4.00;1.35;;;15.80;61.40;;;;;;5034496;28;20181;-63
2024/04/04 02:49:19;;;;;;;1.63;0.80;;;15.80;61.40;;;;;;5034053;28;20270;-62
2024/04/04 02:51:44;;;;;;;1.38;0.80;;;15.80;61.40;;;;;;5033560;28;20259;-63
2024/04/04 02:54:10;;;;;;;2.65;1.40;;;15.80;61.40;;;;;;5033880;28;20751;-63
2024/04/04 02:56:35;;;;;;;2.42;0.85;;;15.80;61.40;;;;;;5034188;28;20580;-64
2024/04/04 02:59:01;;;;;;;2.97;0.75;;;15.80;61.40;;;;;;5033175;28;20580;-63
2024/04/04 03:01:26;;;;;;;4.68;1.30;;;15.80;61.40;;;;;;5033668;28;20219;-63
2024/04/04 03:03:52;;;;;;;2.35;1.10;;;15.80;61.40;;;;;;5032730;28;20168;-63
2024/04/04 03:06:18;;;;;;;1.90;1.08;;;15.80;61.40;;;;;;5033142;28;20230;-63
2024/04/04 03:08:44;;;;;;;3.35;1.10;;;15.80;61.40;;;;;;5033256;28;20650;-63
2024/04/04 03:11:09;;;;;;;0.98;0.88;;;15.80;61.40;;;;;;5033525;28;20175;-62
2024/04/04 03:13:35;;;;;;;1.10;1.00;;;15.70;61.40;;;;;;5033096;28;20240;-62
2024/04/04 03:16:00;;;;;;;1.95;0.93;;;15.80;61.40;;;;;;5033655;28;20552;-63
2024/04/04 03:18:26;;;;;;;1.45;0.77;;;15.70;61.40;;;;;;5033652;28;20176;-63
2024/04/04 03:20:52;;;;;;;2.28;1.05;;;15.70;61.40;;;;;;5033055;28;20222;-63
2024/04/04 03:23:17;;;;;;;1.50;1.10;;;15.70;61.40;;;;;;5033414;28;20210;-62
2024/04/04 03:25:43;;;;;;;2.83;1.10;;;15.70;61.40;;;;;;5033727;28;20199;-62
2024/04/04 03:28:08;;;;;;;2.13;0.82;;;15.70;61.40;;;;;;5032558;28;20172;-62
2024/04/04 03:30:34;;;;;;;2.63;1.20;;;15.80;61.50;;;;;;5033818;28;20215;-63
2024/04/04 03:32:59;;;;;;;1.80;1.05;;;15.70;61.50;;;;;;5032983;28;20176;-62
2024/04/04 03:35:25;;;;;;;2.45;0.80;;;15.70;61.40;;;;;;5033229;28;20179;-63
2024/04/04 03:37:51;;;;;;;1.42;0.88;;;15.70;61.40;;;;;;5033114;28;20264;-63
2024/04/04 03:40:16;;;;;;;1.77;0.80;;;15.70;61.50;;;;;;5032306;28;20292;-63
2024/04/04 03:42:42;;;;;;;2.75;0.82;;;15.70;61.50;;;;;;5033099;28;20227;-63
2024/04/04 03:45:08;;;;;;;3.17;1.05;;;15.70;62.40;;;;;;5032889;28;20180;-63
2024/04/04 03:47:35;;;;;;;3.30;1.50;;;15.70;61.50;;;;;;5032454;28;20685;-62
2024/04/04 03:50:01;;;;;;;2.00;0.90;;;15.70;61.50;;;;;;5033215;28;20176;-63
2024/04/04 03:52:27;;;;;;;2.22;1.00;;;15.70;61.60;;;;;;5032838;28;20593;-63
2024/04/04 03:54:53;;;;;;;2.58;0.90;;;15.70;61.60;;;;;;5032332;28;20227;-63
2024/04/04 03:57:18;;;;;;;2.33;1.10;;;15.70;62.40;;;;;;5032712;28;20214;-63
2024/04/04 03:59:44;;;;;;;1.60;0.90;;;15.70;61.60;;;;;;5033207;28;20249;-63
2024/04/04 04:02:09;;;;;;;1.08;0.80;;;15.70;61.60;;;;;;5032003;28;20254;-63
2024/04/04 04:04:35;;;;;;;1.27;0.90;;;15.70;61.70;;;;;;5033016;28;20175;-63
2024/04/04 04:07:00;;;;;;;2.53;0.90;;;15.70;61.60;;;;;;5032882;28;20234;-62
2024/04/04 04:09:26;;;;;;;2.20;1.13;;;15.70;61.70;;;;;;5031852;28;20590;-63
2024/04/04 04:11:52;;;;;;;2.53;1.23;;;15.70;61.60;;;;;;5032930;28;20179;-63
2024/04/04 04:14:17;;;;;;;2.10;0.90;;;15.70;61.70;;;;;;5032650;28;20567;-63
2024/04/04 04:16:43;;;;;;;1.80;0.98;;;15.70;61.70;;;;;;5032119;28;20176;-64
2024/04/04 04:19:08;;;;;;;1.63;0.70;;;15.70;61.80;;;;;;5032188;28;20180;-63
2024/04/04 04:21:34;;;;;;;2.10;1.02;;;15.70;61.80;;;;;;5032601;28;20226;-64
2024/04/04 04:24:01;;;;;;;1.00;0.95;;;15.70;61.90;;;;;;5031826;28;20180;-64
2024/04/04 04:26:27;;;;;;;2.40;0.85;;;15.70;61.90;;;;;;5032173;28;20588;-64
2024/04/04 04:28:53;;;;;;;1.13;0.85;;;15.70;61.80;;;;;;5032545;28;20630;-62
2024/04/04 04:31:29;;;;;;;1.83;1.02;;;15.70;61.90;;;;;;5031640;28;20210;-62
2024/04/04 04:33:55;;;;;;;1.35;0.90;;;15.70;61.90;;;;;;5032398;28;20179;-63
2024/04/04 04:36:24;;;;;;;2.53;0.80;;;15.70;61.90;;;;;;5031236;28;20214;-63
2024/04/04 04:38:49;;;;;;;1.65;0.90;;;15.70;61.90;;;;;;5032103;28;20179;-63
2024/04/04 04:41:18;;;;;;;1.45;0.88;;;15.60;61.90;;;;;;5031441;28;20238;-62
2024/04/04 04:43:44;;;;;;;1.58;0.95;;;15.60;61.90;;;;;;5031765;28;20183;-64
2024/04/04 04:46:14;;;;;;;2.63;1.38;;;15.60;61.90;;;;;;5031857;28;20342;-63
2024/04/04 04:48:40;;;;;;;1.65;1.23;;;15.60;62.00;;;;;;5032216;28;20250;-63
2024/04/04 04:51:08;;;;;;;1.50;0.70;;;15.60;62.00;;;;;;5031163;28;20275;-62
2024/04/04 04:53:34;;;;;;;2.05;1.25;;;15.60;62.10;;;;;;5031985;28;20182;-63
2024/04/04 04:56:00;;;;;;;1.67;1.02;;;15.60;62.00;;;;;;5032141;28;20183;-64
2024/04/04 04:58:25;;;;;;;0.70;0.70;;;15.60;62.10;;;;;;5031098;28;20172;-64
2024/04/04 05:00:52;;;;;;;0.90;0.80;;;15.60;62.10;;;;;;5031888;28;20257;-63
2024/04/04 05:03:21;;;;;;;3.03;1.10;;;15.60;62.00;;;;;;5031785;28;20202;-63
2024/04/04 05:05:46;;;;;;;2.05;0.88;;;15.60;62.00;;;;;;5031207;28;20180;-64
2024/04/04 05:08:12;;;;;;;1.88;0.98;;;15.60;62.10;;;;;;5031485;28;20516;-63
2024/04/04 05:10:38;;;;;;;1.08;0.70;;;15.60;62.10;;;;;;5031998;28;20661;-64
2024/04/04 05:13:03;;;;;;;2.00;0.80;;;15.60;62.00;;;;;;5031172;28;20214;-63
2024/04/04 05:15:29;;;;;;;0.95;0.77;;;15.60;62.20;;;;;;5031504;28;20210;-63
2024/04/04 05:17:54;;;;;;;1.33;0.85;;;15.60;62.10;;;;;;5031702;28;20214;-64
2024/04/04 05:20:20;;;;;;;1.45;0.80;;;15.60;62.10;;;;;;5030818;28;20215;-65
2024/04/04 05:22:45;;;;;;;1.45;0.88;;;15.60;62.00;;;;;;5031687;28;20187;-64
2024/04/04 05:25:14;;;;;;;1.70;1.10;;;15.60;62.10;;;;;;5031042;28;20194;-64
2024/04/04 05:27:42;;;;;;;1.63;0.90;;;15.60;62.10;;;;;;5031216;28;20191;-63
2024/04/04 05:30:14;;;;;;;1.50;0.90;;;15.60;62.10;;;;;;5031302;28;20183;-63
2024/04/04 05:32:43;;;;;;;1.83;1.05;;;15.60;62.20;;;;;;5035099;28;20234;-63
2024/04/04 05:35:08;;;;;;;1.65;0.95;;;15.60;62.20;;;;;;5035103;28;20176;-64
2024/04/04 05:37:35;;;;;;;1.15;0.75;;;15.60;62.20;;;;;;5035711;28;20175;-64
2024/04/04 05:40:01;;;;;;;1.35;1.00;;;15.60;62.20;;;;;;5034792;28;20276;-64
2024/04/04 05:42:28;;;;;;;2.75;1.20;;;15.60;62.10;;;;;;5035179;28;20875;-64
2024/04/04 05:44:54;;;;;;;1.70;0.85;;;15.60;62.20;;;;;;5035380;28;20650;-63
2024/04/04 05:47:22;;;;;;;1.95;1.13;;;15.60;62.20;;;;;;5034319;28;20275;-62
2024/04/04 05:49:48;;;;;;;1.25;1.10;;;15.60;62.20;;;;;;5035356;28;20733;-63
2024/04/04 05:52:13;;;;;;;2.25;1.00;;;15.60;62.10;;;;;;5034939;28;20262;-64
2024/04/04 05:54:39;;;;;;;0.98;0.88;;;15.60;62.10;;;;;;5034768;28;20175;-64
2024/04/04 05:57:07;;;;;;;1.63;0.80;;;15.70;62.30;;;;;;5035393;28;20179;-65
2024/04/04 05:59:33;;;;;;;4.15;0.95;;;15.80;62.40;;;;;;5035107;28;20261;-64
2024/04/04 06:01:59;;;;;;;0.70;0.70;;;15.90;62.20;;;;;;5034359;28;20637;-64
2024/04/04 06:04:27;;;;;;;1.60;1.00;;;16.00;62.10;;;;;;5034778;28;20179;-64
2024/04/04 06:06:53;;;;;;;2.15;0.80;;;16.10;62.00;;;;;;5034946;28;20179;-64
2024/04/04 06:09:18;;;;;;;1.10;0.68;;;16.20;61.70;;;;;;5034180;28;20544;-64
2024/04/04 06:11:44;;;;;;;1.65;1.02;;;16.40;61.60;;;;;;5035013;28;20683;-64
2024/04/04 06:14:09;;;;;;;3.15;0.98;;;16.50;61.30;;;;;;5034521;28;20168;-64
2024/04/04 06:16:35;;;;;;;1.02;0.60;;;16.70;61.10;;;;;;5034104;28;20180;-64
2024/04/04 06:19:01;;;;;;;1.38;0.82;;;16.80;60.60;;;;;;5034682;28;20829;-64
2024/04/04 06:21:26;;;;;;;3.42;0.93;;;16.90;60.40;;;;;;5034314;28;20230;-64
2024/04/04 06:23:52;;;;;;;2.08;0.73;;;17.00;60.10;;;;;;5033953;28;20172;-64
2024/04/04 06:26:17;;;;;;;1.50;0.60;;;17.20;59.90;;;;;;5034322;28;20222;-64
2024/04/04 06:28:45;;;;;;;1.55;0.75;;;17.20;59.80;;;;;;5034063;28;20164;-64
2024/04/04 06:31:11;;;;;;;1.05;0.95;;;17.30;59.50;;;;;;5034205;28;20230;-63
2024/04/04 06:33:37;;;;;;;1.67;0.70;;;17.30;59.60;;;;;;5034474;28;20196;-64
2024/04/04 06:36:03;;;;;;;1.15;0.80;;;17.30;59.60;;;;;;5033943;28;20184;-64
2024/04/04 06:38:31;;;;;;;3.90;1.20;;;17.30;59.60;;;;;;5034074;28;20222;-64
2024/04/04 06:40:57;;;;;;;2.42;0.80;;;17.40;59.60;;;;;;5034256;28;20274;-63
2024/04/04 06:43:22;;;;;;;1.58;0.80;;;17.30;59.70;;;;;;5032214;28;20192;-64
2024/04/04 06:45:48;;;;;;;1.30;0.80;;;17.30;59.70;;;;;;5034273;28;20238;-64
2024/04/04 06:48:13;;;;;;;1.45;0.75;;;17.30;59.70;;;;;;5033894;28;20599;-63
2024/04/04 06:50:39;;;;;;;1.88;0.70;;;17.40;59.60;;;;;;5033780;28;20282;-63
2024/04/04 06:53:04;;;;;;;1.40;0.98;;;17.40;59.60;;;;;;5033912;28;20646;-63
2024/04/04 06:55:31;;;;;;;0.70;0.63;;;17.40;59.60;;;;;;5033954;28;20188;-64
2024/04/04 06:57:56;;;;;;;1.55;0.90;;;17.50;59.50;;;;;;5033496;28;20172;-64
2024/04/04 07:00:22;;;;;;;1.63;0.80;;;17.50;59.50;;;;;;5033788;28;20628;-64
2024/04/04 07:02:47;;;;;;;2.63;1.08;;;17.50;59.70;;;;;;5034064;28;20687;-64
2024/04/04 07:05:13;;;;;;;0.68;0.60;;;17.40;59.60;;;;;;5033066;28;20172;-64
2024/04/04 07:07:38;;;;;;;2.28;0.85;;;17.50;59.70;;;;;;5034171;28;20534;-65
2024/04/04 07:10:04;;;;;;;0.75;0.55;;;17.50;59.70;;;;;;5034002;28;20198;-63
2024/04/04 07:12:30;;;;;;;1.42;0.68;;;17.40;59.70;;;;;;5033065;28;20225;-64
2024/04/04 07:14:55;;;;;;;1.52;0.88;;;17.40;59.80;;;;;;5033827;28;20180;-63
2024/04/04 07:17:21;;;;;;;0.95;0.82;;;17.30;59.90;;;;;;5033502;28;20650;-64
2024/04/04 07:19:47;;;;;;;0.77;0.60;;;17.30;59.90;;;;;;5033327;28;20661;-64
2024/04/04 07:22:12;;;;;;;2.08;0.80;;;17.20;60.20;;;;;;5033548;28;20616;-63
2024/04/04 07:24:38;;;;;;;1.48;0.88;;;17.20;60.30;;;;;;5033833;28;20680;-63
2024/04/04 07:27:05;;;;;;;1.25;0.93;;;17.20;60.40;;;;;;5032830;28;20684;-63
2024/04/04 07:29:30;;;;;;;1.15;0.88;;;17.20;60.40;;;;;;5033231;28;20698;-63
2024/04/04 07:31:56;;;;;;;1.20;0.60;;;17.30;60.50;;;;;;5032767;28;20191;-63
2024/04/04 07:34:22;;;;;;;1.75;0.77;;;17.30;60.50;;;;;;5032967;28;20172;-64
2024/04/04 07:36:47;;;;;;;2.30;0.88;;;17.20;60.40;;;;;;5033569;28;20186;-64
2024/04/04 07:39:14;;;;;;;1.70;1.13;;;17.20;60.50;;;;;;5032427;28;20646;-64
2024/04/04 07:41:43;;;;;;;0.68;0.63;;;17.20;60.60;;;;;;5045542;28;20318;-63
2024/04/04 07:44:08;;;;;;;1.20;0.90;;;17.10;60.60;;;;;;5036542;28;20182;-63
2024/04/04 07:46:34;;;;;;;1.38;1.08;;;17.10;60.70;;;;;;5052625;28;20257;-63
2024/04/04 07:48:59;;;;;;;0.95;0.70;;;17.10;60.70;;;;;;5044299;28;20593;-63
2024/04/04 07:51:26;;;;;;;0.70;0.70;;;17.10;60.80;;;;;;5032843;28;20701;-63
2024/04/04 07:53:52;;;;;;;0.70;0.70;;;17.00;61.00;;;;;;5032123;28;20180;-63
2024/04/04 07:56:17;;;;;;;1.95;0.95;;;17.00;61.10;;;;;;5032692;28;20518;-64
2024/04/04 07:58:44;;;;;;;0.93;0.68;;;17.00;61.10;;;;;;5051475;28;20163;-65
2024/04/04 08:01:11;;;;;;;2.08;0.90;;;17.10;61.20;;;;;;5051509;28;20264;-64
2024/04/04 08:03:37;;;;;;;1.58;0.80;;;17.00;61.10;;;;;;5052803;28;20626;-64
2024/04/04 08:06:03;;;;;;;3.67;1.00;;;17.00;61.10;;;;;;5052805;28;20186;-64
2024/04/04 08:08:28;;;;;;;1.60;0.80;;;17.00;61.20;;;;;;5051749;28;20390;-64
2024/04/04 08:10:54;;;;;;;2.35;0.85;;;17.00;61.20;;;;;;5052645;28;20171;-64
2024/04/04 08:13:19;;;;;;;0.73;0.70;;;17.00;61.30;;;;;;5052209;28;20266;-64
2024/04/04 08:15:49;;;;;;;1.63;0.85;;;17.00;61.40;;;;;;5052076;28;20185;-63
2024/04/04 08:18:14;;;;;;;1.27;1.02;;;16.90;61.40;;;;;;5052255;28;20171;-64
2024/04/04 08:20:44;;;;;;;0.98;0.70;;;16.90;61.50;;;;;;5052322;28;20696;-64
2024/04/04 08:23:10;;;;;;;1.05;0.55;;;16.90;61.60;;;;;;5051508;28;20590;-64
2024/04/04 08:25:36;;;;;;;3.20;1.20;;;16.90;61.60;;;;;;5052458;28;20715;-64
2024/04/04 08:28:02;;;;;;;1.70;0.90;;;16.90;61.60;;;;;;5052127;28;20213;-64
2024/04/04 08:30:27;;;;;;;2.70;0.90;;;17.00;61.70;;;;;;5051666;28;20638;-64
2024/04/04 08:32:53;;;;;;;2.13;0.70;;;17.00;61.70;;;;;;5052193;28;20544;-64
2024/04/04 08:35:18;;;;;;;1.05;0.80;;;17.00;61.70;;;;;;5051301;28;20186;-66
2024/04/04 08:37:44;;;;;;;2.45;0.80;;;16.90;61.80;;;;;;5052366;28;20187;-64
2024/04/04 08:40:11;;;;;;;2.00;0.80;;;16.90;62.10;;;;;;5051662;28;20198;-64
2024/04/04 08:42:37;;;;;;;3.58;1.25;;;16.90;62.10;;;;;;5051299;28;20230;-63
2024/04/04 08:45:03;;;;;;;2.15;1.02;;;16.80;62.20;;;;;;5052264;28;20175;-64
2024/04/04 08:47:29;;;;;;;1.17;0.80;;;16.80;62.30;;;;;;5050736;28;20256;-64
2024/04/04 08:49:54;;;;;;;2.20;1.10;;;16.80;62.40;;;;;;5050275;28;20262;-62
2024/04/04 08:52:21;;;;;;;2.50;1.02;;;16.80;62.50;;;;;;5050644;28;20179;-63
2024/04/04 08:54:46;;;;;;;2.25;0.77;;;16.80;62.90;;;;;;5050907;28;20257;-63
2024/04/04 08:57:12;;;;;;;3.08;1.05;;;16.70;62.90;;;;;;5050850;28;20671;-66
2024/04/04 08:59:38;;;;;;;2.70;1.00;;;16.70;63.20;;;;;;5051920;28;20544;-66
2024/04/04 09:02:04;;;;;;;3.40;0.90;;;16.70;63.20;;;;;;5051972;28;20182;-65
2024/04/04 09:04:32;;;;;;;2.30;1.00;;;16.70;63.30;;;;;;5050925;28;20175;-66
2024/04/04 09:06:58;;;;;;;2.42;1.38;;;16.70;63.30;;;;;;5051030;28;20352;-65
2024/04/04 09:09:26;;;;;;;0.75;0.75;;;16.70;63.50;;;;;;5051626;28;20266;-65
2024/04/04 09:11:51;;;;;;;1.92;1.00;;;16.70;63.40;;;;;;5050074;28;20175;-65
2024/04/04 09:14:17;;;;;;;3.15;1.42;;;16.70;63.50;;;;;;5051335;28;20175;-65
2024/04/04 09:16:43;;;;;;;2.95;1.00;;;16.70;63.70;;;;;;5048277;28;20229;-64
2024/04/04 09:19:15;;;;;;;2.50;0.77;;;16.70;63.80;;;;;;5039142;28;20241;-64
2024/04/04 09:21:43;;;;;;;1.50;0.85;;;16.60;63.70;;;;;;5043268;28;20305;-65
2024/04/04 09:24:08;;;;;;;2.80;1.17;;;16.60;63.90;;;;;;5040235;28;20178;-65
2024/04/04 09:26:35;;;;;;;4.70;1.23;;;16.60;64.00;;;;;;5040065;28;20179;-64
2024/04/04 09:29:02;;;;;;;1.25;1.15;;;16.60;64.10;;;;;;5041105;28;20237;-64
2024/04/04 09:31:29;;;;;;;3.95;1.00;;;16.60;63.90;;;;;;5041921;28;20642;-64
2024/04/04 09:33:56;;;;;;;3.30;0.93;;;16.60;63.90;;;;;;5041040;28;20637;-64
2024/04/04 09:36:24;;;;;;;1.75;0.70;;;16.60;63.90;;;;;;5041669;28;20207;-65
2024/04/04 09:38:51;;;;;;;4.32;1.00;;;16.60;63.70;;;;;;5040526;28;20975;-64
2024/04/04 09:41:17;;;;;;;1.75;0.98;;;16.60;63.70;;;;;;5039040;28;20230;-64
2024/04/04 09:43:43;;;;;;;1.27;1.00;;;16.70;63.80;;;;;;5030963;28;20191;-63
2024/04/04 09:46:08;;;;;;;2.63;0.88;;;16.60;63.60;;;;;;5030932;28;20167;-63
2024/04/04 09:48:34;;;;;;;2.67;1.05;;;16.60;63.90;;;;;;5040721;28;20213;-63
2024/04/04 09:50:59;;;;;;;3.50;1.10;;;16.70;64.00;;;;;;5039893;28;20172;-63
2024/04/04 09:53:25;;;;;;;1.98;0.82;;;16.70;63.90;;;;;;5037695;28;20166;-64
2024/04/04 09:55:52;;;;;;;2.60;1.27;;;16.70;63.90;;;;;;5041787;28;20202;-64
2024/04/04 09:58:18;;;;;;;1.10;0.75;;;16.70;63.80;;;;;;5048770;28;20182;-64
2024/04/04 10:00:43;;;;;;;1.85;1.05;;;16.70;63.80;;;;;;5049348;28;20215;-64
2024/04/04 10:03:13;;;;;;;1.85;1.08;;;16.70;63.80;;;;;;5050834;28;20171;-64
2024/04/04 10:05:38;;;;;;;2.47;0.90;;;16.70;63.80;;;;;;5051327;28;20206;-64
2024/04/04 10:08:11;;;;;;;1.48;0.70;;;16.70;63.90;;;;;;5050376;28;20199;-64
2024/04/04 10:10:37;;;;;;;0.75;0.65;;;16.70;64.00;;;;;;5051435;28;20195;-65
2024/04/04 10:13:06;;;;;;;1.85;0.70;;;16.60;64.00;;;;;;5050998;28;20187;-64
2024/04/04 10:15:43;;;;;;;2.50;0.97;;;16.60;64.10;;;;;;5049241;28;20425;-64
2024/04/04 10:18:10;;;;;;;2.15;1.17;;;16.60;64.10;;;;;;5053756;28;20175;-64
2024/04/04 10:20:37;;;;;;;1.25;1.05;;;16.50;64.10;;;;;;5054775;28;20219;-65
2024/04/04 10:23:05;;;;;;;2.30;1.10;;;16.60;64.20;;;;;;5053998;28;20537;-65
2024/04/04 10:25:31;;;;;;;2.72;1.02;;;16.60;64.30;;;;;;5053178;28;20176;-65
2024/04/04 10:28:07;;;;;;;2.03;0.90;;;16.60;64.50;;;;;;5053827;28;20175;-65
2024/04/04 10:30:39;;;;;;;2.15;1.10;;;16.60;64.60;;;;;;5054321;28;20189;-64
2024/04/04 10:33:08;;;;;;;2.30;1.10;;;16.60;64.10;;;;;;5054484;28;20263;-64
2024/04/04 10:35:34;;;;;;;2.10;1.13;;;16.70;64.00;;;;;;5054068;28;20183;-65
2024/04/04 10:38:09;;;;;;;2.08;1.23;;;16.80;63.80;;;;;;5054576;28;20586;-64
2024/04/04 10:40:35;;;;;;;2.40;1.10;;;16.90;63.60;;;;;;5054202;28;20215;-64
2024/04/04 10:43:02;;;;;;;2.97;0.90;;;16.90;63.40;;;;;;5053735;28;20235;-63
2024/04/04 10:45:28;;;;;;;1.65;0.80;;;17.00;63.50;;;;;;5052875;28;20974;-63
2024/04/04 10:47:55;;;;;;;1.98;0.85;;;17.00;63.50;;;;;;5054314;28;20182;-63
2024/04/04 10:50:21;;;;;;;1.40;1.00;;;17.00;63.50;;;;;;5053295;28;20218;-63
2024/04/04 10:52:46;;;;;;;1.55;1.00;;;17.00;63.60;;;;;;5054443;28;20214;-63
2024/04/04 10:55:12;;;;;;;1.25;0.80;;;17.00;63.70;;;;;;5052500;28;20637;-63
2024/04/04 10:57:39;;;;;;;3.17;0.90;;;16.90;63.70;;;;;;5053348;28;20186;-63
2024/04/04 11:00:11;;;;;;;2.47;1.30;;;17.00;63.80;;;;;;5053953;28;20657;-63
2024/04/04 11:02:37;;;;;;;2.53;1.10;;;17.00;63.70;;;;;;5054390;28;20233;-64
2024/04/04 11:05:05;;;;;;;1.48;0.90;;;17.00;63.60;;;;;;5053266;28;20687;-63
2024/04/04 11:07:32;;;;;;;1.58;1.10;;;17.00;63.60;;;;;;5052635;28;20191;-64
2024/04/04 11:09:57;;;;;;;1.65;0.88;;;17.00;63.50;;;;;;5053658;28;20202;-63
2024/04/04 11:12:23;;;;;;;0.90;0.80;;;17.10;63.50;;;;;;5053342;28;20222;-64
2024/04/04 11:14:48;;;;;;;2.15;1.00;;;17.10;63.50;;;;;;5053868;28;20568;-63
2024/04/04 11:17:14;;;;;;;2.28;1.00;;;17.20;63.50;;;;;;5051509;28;20254;-63
2024/04/04 11:19:39;;;;;;;2.45;0.88;;;17.10;63.50;;;;;;5053642;28;20266;-63
2024/04/04 11:22:05;;;;;;;2.20;1.17;;;17.10;63.60;;;;;;5052532;28;20263;-64
2024/04/04 11:24:30;;;;;;;0.90;0.80;;;17.00;63.60;;;;;;5052816;28;20263;-63
2024/04/04 11:26:56;;;;;;;2.03;0.95;;;17.00;63.70;;;;;;5053561;28;20304;-63
2024/04/04 11:29:22;;;;;;;1.33;0.75;;;17.00;63.90;;;;;;5052606;28;20183;-63
2024/04/04 11:31:53;;;;;;;1.33;0.80;;;17.00;63.70;;;;;;5053038;28;20198;-63
2024/04/04 11:34:20;;;;;;;1.77;0.73;;;17.00;63.80;;;;;;5053335;28;20177;-63
2024/04/04 11:36:45;;;;;;;3.63;1.10;;;17.00;63.80;;;;;;5053420;28;20183;-63
2024/04/04 11:39:11;;;;;;;2.05;0.82;;;17.00;63.60;;;;;;5052371;28;20179;-64
2024/04/04 11:41:36;;;;;;;0.60;0.60;;;17.10;63.60;;;;;;5053130;28;20235;-63
2024/04/04 11:44:03;;;;;;;1.98;0.70;;;17.10;63.60;;;;;;5053132;28;20638;-63
2024/04/04 11:46:28;;;;;;;1.63;0.77;;;17.10;63.60;;;;;;5052601;28;20542;-62
2024/04/04 11:48:54;;;;;;;1.85;1.00;;;17.10;63.60;;;;;;5053269;28;20546;-62
2024/04/04 11:51:20;;;;;;;1.77;0.80;;;17.10;63.70;;;;;;5052955;28;20791;-62
2024/04/04 11:53:45;;;;;;;1.08;0.80;;;17.10;63.60;;;;;;5052488;28;20217;-63
2024/04/04 11:56:11;;;;;;;2.40;0.90;;;17.10;63.50;;;;;;5052669;28;20236;-64
2024/04/04 11:58:38;;;;;;;1.88;1.00;;;17.10;63.50;;;;;;5052856;28;20171;-64
2024/04/04 12:01:04;;;;;;;1.90;1.00;;;17.10;64.30;;;;;;5052296;28;20214;-63
2024/04/04 12:03:29;;;;;;;2.20;0.85;;;17.20;63.30;;;;;;5052790;28;20652;-63
2024/04/04 12:05:55;;;;;;;0.80;0.60;;;17.20;63.40;;;;;;5052959;28;20580;-63
2024/04/04 12:08:21;;;;;;;1.55;0.85;;;17.10;64.20;;;;;;5050688;28;20240;-64
2024/04/04 12:10:46;;;;;;;2.15;1.05;;;17.10;63.50;;;;;;5052716;28;20661;-64
2024/04/04 12:13:12;;;;;;;1.75;0.80;;;17.20;63.40;;;;;;5052315;28;20179;-64
2024/04/04 12:15:38;;;;;;;2.00;0.85;;;17.20;63.20;;;;;;5051973;28;20191;-63
2024/04/04 12:20:49;;;;;;;3.92;1.02;;;17.30;63.00;;;;;;5051916;28;20261;-63
2024/04/04 12:23:15;;;;;;;2.00;0.90;;;17.30;62.80;;;;;;5052158;28;20171;-63
2024/04/04 12:25:45;;;;;;;1.58;0.90;;;17.20;62.90;;;;;;5052464;28;20266;-64
2024/04/04 12:28:10;;;;;;;2.17;0.93;;;17.20;63.20;;;;;;5050459;28;20190;-63
2024/04/04 12:30:36;;;;;;;1.90;0.93;;;17.20;63.10;;;;;;5052582;28;20179;-64
2024/04/04 12:33:01;;;;;;;1.65;0.80;;;17.30;63.00;;;;;;5052336;28;20551;-64
2024/04/04 12:35:27;;;;;;;2.25;1.15;;;17.20;63.10;;;;;;5051521;28;20677;-64
2024/04/04 12:37:53;;;;;;;1.38;1.05;;;17.30;63.00;;;;;;5050514;28;20216;-64
2024/04/04 12:40:18;;;;;;;1.20;0.90;;;17.30;62.80;;;;;;5049751;28;20359;-63
2024/04/04 12:42:44;;;;;;;2.80;1.00;;;17.40;62.80;;;;;;5051377;28;20219;-64
2024/04/04 12:45:09;;;;;;;2.47;1.10;;;17.40;62.60;;;;;;5051993;28;20171;-63